Valley Park, Mississippi
Current Conditions -  °F | °C
As of 9:45 PM on Friday 19 Dec 2014 (Local Time) from KTVR Reporting Station
Overcast Overcast  
Wind Chill: 43°   Ceiling: 3700
Heat Index: 47°   Visibility: 7mi
Dew Point: 44°   Wind: 9mph
Humidity: 90%   Direction: 20°NNE
Pressure: 30.2"   Gusts: NA
Location:  32.63°N, 90.87°W
Report Text: KTVR 200345Z AUTO 02008KT 7SM SCT017 OVC037 08/07 A3020 RMK AO2 T00830067
Loading
Personal Weather Stations






























Interactive Weather Map New forecast layout! Learn more

10-Day Weather Forecast

Advertisements
Track Severe Weather on mobile